NCAR-RAP Real-Time Weather Data

Output produced by METARs form (24 January 2022  22:38 UTC)
found at http://weather.rap.ucar.edu/surface/
 
KPIA 242154Z 32009G20KT 10SM OVC019 M02/M07 A2980
KPIA 242054Z 33010G22KT 10SM OVC017 M02/M06 A2977
KPIA 242045Z 32011G20KT 10SM OVC017 M02/M06 A2976
KPIA 241957Z 34011G26KT 10SM OVC019 M01/M06 A2974
KPIA 241954Z 33009G20KT 10SM OVC019 M01/M06 A2974
KPIA 241854Z 32012G18KT 10SM OVC021 01/M05 A2970
KPIA 241853Z 1853KT 33011G18 10SM OVC021 01/M05 A2970
KPIA 241754Z 31006KT 10SM BKN017 01/M04 A2967
KPIA 241654Z 29007KT 9SM BKN021 BKN046 OVC060 00/M04 A2967 RMK SN BEGAN AT 09 AND ENDED AT 47
KPIA 241645Z 290006KT 07SM -SN FEW038 BKN046 OVC060 00/M04 A2966
KPIA 241554Z 26004KT 10SM BKN050 BKN070 M01/M06 A2965
KPIA 241454Z 23004KT 10SM FEW023 OVC050 M02/M07 A2963
KPIA 241354Z 24005KT 10SM OVC055 M03/M07 A2964